sensor_id;sensor_type;location;lat;lon;timestamp;temperature;humidity
1704;DHT22;849;48.780;9.216;2024-02-28T00:01:21;11.20;99.90
1704;DHT22;849;48.780;9.216;2024-02-28T00:04:05;11.10;99.90
1704;DHT22;849;48.780;9.216;2024-02-28T00:06:50;11.10;99.90
1704;DHT22;849;48.780;9.216;2024-02-28T00:09:34;11.00;99.90
1704;DHT22;849;48.780;9.216;2024-02-28T00:12:18;10.90;99.90
1704;DHT22;849;48.780;9.216;2024-02-28T00:15:02;10.90;99.90
1704;DHT22;849;48.780;9.216;2024-02-28T00:17:47;10.80;99.90
1704;DHT22;849;48.780;9.216;2024-02-28T00:20:35;10.80;99.90
1704;DHT22;849;48.780;9.216;2024-02-28T00:23:19;10.80;99.90
1704;DHT22;849;48.780;9.216;2024-02-28T00:26:03;10.80;99.90
1704;DHT22;849;48.780;9.216;2024-02-28T00:28:47;10.80;99.90
1704;DHT22;849;48.780;9.216;2024-02-28T00:31:32;10.80;99.90
1704;DHT22;849;48.780;9.216;2024-02-28T00:34:16;10.80;99.90
1704;DHT22;849;48.780;9.216;2024-02-28T00:37:00;10.90;99.90
1704;DHT22;849;48.780;9.216;2024-02-28T00:39:44;11.00;99.90
1704;DHT22;849;48.780;9.216;2024-02-28T00:42:29;10.90;99.90
1704;DHT22;849;48.780;9.216;2024-02-28T00:45:13;10.90;99.90
1704;DHT22;849;48.780;9.216;2024-02-28T00:47:57;11.00;99.90
1704;DHT22;849;48.780;9.216;2024-02-28T00:50:41;11.10;99.90
1704;DHT22;849;48.780;9.216;2024-02-28T00:53:25;11.10;99.90
1704;DHT22;849;48.780;9.216;2024-02-28T00:56:10;11.10;99.90
1704;DHT22;849;48.780;9.216;2024-02-28T00:58:54;11.10;99.90
1704;DHT22;849;48.780;9.216;2024-02-28T01:01:38;11.10;99.90
1704;DHT22;849;48.780;9.216;2024-02-28T01:04:22;11.10;99.90
1704;DHT22;849;48.780;9.216;2024-02-28T01:07:06;11.00;99.90
1704;DHT22;849;48.780;9.216;2024-02-28T01:09:51;10.90;99.90
1704;DHT22;849;48.780;9.216;2024-02-28T01:12:35;11.00;99.90
1704;DHT22;849;48.780;9.216;2024-02-28T01:15:19;11.20;99.90
1704;DHT22;849;48.780;9.216;2024-02-28T01:18:03;11.00;99.90
1704;DHT22;849;48.780;9.216;2024-02-28T01:20:47;11.00;99.90
1704;DHT22;849;48.780;9.216;2024-02-28T01:23:32;11.00;99.90
1704;DHT22;849;48.780;9.216;2024-02-28T01:26:16;10.90;99.90
1704;DHT22;849;48.780;9.216;2024-02-28T01:29:00;10.80;99.90
1704;DHT22;849;48.780;9.216;2024-02-28T01:31:44;10.60;99.90
1704;DHT22;849;48.780;9.216;2024-02-28T01:34:28;10.60;99.90
1704;DHT22;849;48.780;9.216;2024-02-28T01:37:13;10.60;99.90
1704;DHT22;849;48.780;9.216;2024-02-28T01:39:57;10.60;99.90
1704;DHT22;849;48.780;9.216;2024-02-28T01:42:41;10.40;99.90
1704;DHT22;849;48.780;9.216;2024-02-28T01:45:25;10.40;99.90
1704;DHT22;849;48.780;9.216;2024-02-28T01:48:09;10.40;99.90
1704;DHT22;849;48.780;9.216;2024-02-28T01:50:54;10.40;99.90
1704;DHT22;849;48.780;9.216;2024-02-28T01:53:38;10.40;99.90
1704;DHT22;849;48.780;9.216;2024-02-28T01:56:23;10.30;99.90
1704;DHT22;849;48.780;9.216;2024-02-28T01:59:08;10.30;99.90
1704;DHT22;849;48.780;9.216;2024-02-28T02:01:54;10.30;99.90
1704;DHT22;849;48.780;9.216;2024-02-28T02:04:38;10.40;99.90
1704;DHT22;849;48.780;9.216;2024-02-28T02:07:22;10.40;99.90
1704;DHT22;849;48.780;9.216;2024-02-28T02:10:06;10.30;99.90
1704;DHT22;849;48.780;9.216;2024-02-28T02:12:52;10.30;99.90
1704;DHT22;849;48.780;9.216;2024-02-28T02:15:37;10.20;99.90
1704;DHT22;849;48.780;9.216;2024-02-28T02:18:22;10.10;99.90
1704;DHT22;849;48.780;9.216;2024-02-28T02:21:06;10.10;99.90
1704;DHT22;849;48.780;9.216;2024-02-28T02:23:50;10.10;99.90
1704;DHT22;849;48.780;9.216;2024-02-28T02:26:35;10.20;99.90
1704;DHT22;849;48.780;9.216;2024-02-28T02:29:19;10.20;99.90
1704;DHT22;849;48.780;9.216;2024-02-28T02:32:03;10.30;99.90
1704;DHT22;849;48.780;9.216;2024-02-28T02:34:48;10.30;99.90
1704;DHT22;849;48.780;9.216;2024-02-28T02:37:32;10.40;99.90
1704;DHT22;849;48.780;9.216;2024-02-28T02:40:17;10.30;99.90
1704;DHT22;849;48.780;9.216;2024-02-28T02:43:02;10.30;99.90
1704;DHT22;849;48.780;9.216;2024-02-28T02:45:46;10.30;99.90
1704;DHT22;849;48.780;9.216;2024-02-28T02:48:31;10.30;99.90
1704;DHT22;849;48.780;9.216;2024-02-28T02:51:15;10.40;99.90
1704;DHT22;849;48.780;9.216;2024-02-28T02:54:01;10.40;99.90
1704;DHT22;849;48.780;9.216;2024-02-28T02:56:45;10.40;99.90
1704;DHT22;849;48.780;9.216;2024-02-28T02:59:30;10.40;99.90
1704;DHT22;849;48.780;9.216;2024-02-28T03:02:14;10.20;99.90
1704;DHT22;849;48.780;9.216;2024-02-28T03:04:58;10.30;99.90
1704;DHT22;849;48.780;9.216;2024-02-28T03:07:42;10.40;99.90
1704;DHT22;849;48.780;9.216;2024-02-28T03:10:26;10.50;99.90
1704;DHT22;849;48.780;9.216;2024-02-28T03:13:10;10.50;99.90
1704;DHT22;849;48.780;9.216;2024-02-28T03:15:54;10.40;99.90
1704;DHT22;849;48.780;9.216;2024-02-28T03:18:39;10.40;99.90
1704;DHT22;849;48.780;9.216;2024-02-28T03:21:23;10.40;99.90
1704;DHT22;849;48.780;9.216;2024-02-28T03:24:07;10.40;99.90
1704;DHT22;849;48.780;9.216;2024-02-28T03:26:51;10.30;99.90
1704;DHT22;849;48.780;9.216;2024-02-28T03:29:36;10.60;99.90
1704;DHT22;849;48.780;9.216;2024-02-28T03:32:20;10.30;99.90
1704;DHT22;849;48.780;9.216;2024-02-28T03:35:04;10.40;99.90
1704;DHT22;849;48.780;9.216;2024-02-28T03:37:49;10.50;99.90
1704;DHT22;849;48.780;9.216;2024-02-28T03:40:33;10.50;99.90
1704;DHT22;849;48.780;9.216;2024-02-28T03:43:17;10.50;99.90
1704;DHT22;849;48.780;9.216;2024-02-28T03:46:01;10.50;99.90
1704;DHT22;849;48.780;9.216;2024-02-28T03:48:46;10.50;99.90
1704;DHT22;849;48.780;9.216;2024-02-28T03:51:30;10.40;99.90
1704;DHT22;849;48.780;9.216;2024-02-28T03:54:15;10.30;99.90
1704;DHT22;849;48.780;9.216;2024-02-28T03:56:59;10.40;99.90
1704;DHT22;849;48.780;9.216;2024-02-28T03:59:43;10.30;99.90
1704;DHT22;849;48.780;9.216;2024-02-28T04:02:27;10.30;99.90
1704;DHT22;849;48.780;9.216;2024-02-28T04:05:12;10.30;99.90
1704;DHT22;849;48.780;9.216;2024-02-28T04:07:56;10.20;99.90
1704;DHT22;849;48.780;9.216;2024-02-28T04:10:40;10.10;99.90
1704;DHT22;849;48.780;9.216;2024-02-28T04:13:24;10.00;99.90
1704;DHT22;849;48.780;9.216;2024-02-28T04:16:09;10.10;99.90
1704;DHT22;849;48.780;9.216;2024-02-28T04:18:53;10.10;99.90
1704;DHT22;849;48.780;9.216;2024-02-28T04:21:37;10.10;99.90
1704;DHT22;849;48.780;9.216;2024-02-28T04:24:22;10.00;99.90
1704;DHT22;849;48.780;9.216;2024-02-28T04:27:06;10.00;99.90
1704;DHT22;849;48.780;9.216;2024-02-28T04:29:50;10.00;99.90
1704;DHT22;849;48.780;9.216;2024-02-28T04:32:34;10.00;99.90
1704;DHT22;849;48.780;9.216;2024-02-28T04:35:19;10.00;99.90
1704;DHT22;849;48.780;9.216;2024-02-28T04:38:03;10.10;99.90
1704;DHT22;849;48.780;9.216;2024-02-28T04:40:47;9.90;99.90
1704;DHT22;849;48.780;9.216;2024-02-28T04:43:33;9.90;99.90
1704;DHT22;849;48.780;9.216;2024-02-28T04:46:17;9.80;99.90
1704;DHT22;849;48.780;9.216;2024-02-28T04:49:02;9.70;99.90
1704;DHT22;849;48.780;9.216;2024-02-28T04:51:46;9.50;99.90
1704;DHT22;849;48.780;9.216;2024-02-28T04:54:31;9.40;99.90
1704;DHT22;849;48.780;9.216;2024-02-28T04:57:15;9.40;99.90
1704;DHT22;849;48.780;9.216;2024-02-28T05:00:00;9.40;99.90
1704;DHT22;849;48.780;9.216;2024-02-28T05:02:44;9.30;99.90
1704;DHT22;849;48.780;9.216;2024-02-28T05:05:28;9.40;99.90
1704;DHT22;849;48.780;9.216;2024-02-28T05:08:12;9.40;99.90
1704;DHT22;849;48.780;9.216;2024-02-28T05:10:57;9.50;99.90
1704;DHT22;849;48.780;9.216;2024-02-28T05:13:41;9.40;99.90
1704;DHT22;849;48.780;9.216;2024-02-28T05:16:25;9.40;99.90
1704;DHT22;849;48.780;9.216;2024-02-28T05:19:09;9.20;99.90
1704;DHT22;849;48.780;9.216;2024-02-28T05:21:54;9.20;99.90
1704;DHT22;849;48.780;9.216;2024-02-28T05:24:38;9.20;99.90
1704;DHT22;849;48.780;9.216;2024-02-28T05:27:22;9.30;99.90
1704;DHT22;849;48.780;9.216;2024-02-28T05:30:06;9.70;99.90
1704;DHT22;849;48.780;9.216;2024-02-28T05:32:50;9.40;99.90
1704;DHT22;849;48.780;9.216;2024-02-28T05:35:35;9.40;99.90
1704;DHT22;849;48.780;9.216;2024-02-28T05:38:19;9.70;99.90
1704;DHT22;849;48.780;9.216;2024-02-28T05:41:03;9.30;99.90
1704;DHT22;849;48.780;9.216;2024-02-28T05:43:47;9.30;99.90
1704;DHT22;849;48.780;9.216;2024-02-28T05:46:32;9.20;99.90
1704;DHT22;849;48.780;9.216;2024-02-28T05:49:16;9.20;99.90
1704;DHT22;849;48.780;9.216;2024-02-28T05:52:00;9.20;99.90
1704;DHT22;849;48.780;9.216;2024-02-28T05:54:44;9.30;99.90
1704;DHT22;849;48.780;9.216;2024-02-28T05:57:29;9.30;99.90
1704;DHT22;849;48.780;9.216;2024-02-28T06:00:13;9.40;99.90
1704;DHT22;849;48.780;9.216;2024-02-28T06:02:58;9.50;99.90
1704;DHT22;849;48.780;9.216;2024-02-28T06:05:42;9.50;99.90
1704;DHT22;849;48.780;9.216;2024-02-28T06:08:26;9.50;99.90
1704;DHT22;849;48.780;9.216;2024-02-28T06:11:10;9.50;99.90
1704;DHT22;849;48.780;9.216;2024-02-28T06:13:54;9.50;99.90
1704;DHT22;849;48.780;9.216;2024-02-28T06:16:38;9.50;99.90
1704;DHT22;849;48.780;9.216;2024-02-28T06:19:22;9.50;99.90
1704;DHT22;849;48.780;9.216;2024-02-28T06:22:06;9.40;99.90
1704;DHT22;849;48.780;9.216;2024-02-28T06:24:51;9.30;99.90
1704;DHT22;849;48.780;9.216;2024-02-28T06:27:35;9.10;99.90
1704;DHT22;849;48.780;9.216;2024-02-28T06:30:19;9.10;99.90
1704;DHT22;849;48.780;9.216;2024-02-28T06:33:04;9.10;99.90
1704;DHT22;849;48.780;9.216;2024-02-28T06:35:48;9.20;99.90
1704;DHT22;849;48.780;9.216;2024-02-28T06:38:32;9.10;99.90
1704;DHT22;849;48.780;9.216;2024-02-28T06:41:16;9.20;99.90
1704;DHT22;849;48.780;9.216;2024-02-28T06:44:00;9.10;99.90
1704;DHT22;849;48.780;9.216;2024-02-28T06:46:45;9.20;99.90
1704;DHT22;849;48.780;9.216;2024-02-28T06:49:29;9.10;99.90
1704;DHT22;849;48.780;9.216;2024-02-28T06:52:14;9.20;99.90
1704;DHT22;849;48.780;9.216;2024-02-28T06:54:58;9.30;99.90
1704;DHT22;849;48.780;9.216;2024-02-28T06:57:43;9.50;99.90
1704;DHT22;849;48.780;9.216;2024-02-28T07:00:28;9.60;99.90
1704;DHT22;849;48.780;9.216;2024-02-28T07:03:12;9.60;99.90
1704;DHT22;849;48.780;9.216;2024-02-28T07:05:56;9.50;99.90
1704;DHT22;849;48.780;9.216;2024-02-28T07:08:40;9.50;99.90
1704;DHT22;849;48.780;9.216;2024-02-28T07:11:24;9.50;99.90
1704;DHT22;849;48.780;9.216;2024-02-28T07:14:08;9.50;99.90
1704;DHT22;849;48.780;9.216;2024-02-28T07:16:52;9.50;99.90
1704;DHT22;849;48.780;9.216;2024-02-28T07:19:37;9.60;99.90
1704;DHT22;849;48.780;9.216;2024-02-28T07:22:22;9.60;99.90
1704;DHT22;849;48.780;9.216;2024-02-28T07:25:06;9.60;99.90
1704;DHT22;849;48.780;9.216;2024-02-28T07:27:51;9.60;99.90
1704;DHT22;849;48.780;9.216;2024-02-28T07:30:36;9.50;99.90
1704;DHT22;849;48.780;9.216;2024-02-28T07:33:19;9.50;99.90
1704;DHT22;849;48.780;9.216;2024-02-28T07:36:04;9.40;99.90
1704;DHT22;849;48.780;9.216;2024-02-28T07:38:48;9.40;99.90
1704;DHT22;849;48.780;9.216;2024-02-28T07:41:32;9.40;99.90
1704;DHT22;849;48.780;9.216;2024-02-28T07:44:16;9.30;99.90
1704;DHT22;849;48.780;9.216;2024-02-28T07:47:00;9.20;99.90
1704;DHT22;849;48.780;9.216;2024-02-28T07:49:44;9.30;99.90
1704;DHT22;849;48.780;9.216;2024-02-28T07:52:29;9.40;99.90
1704;DHT22;849;48.780;9.216;2024-02-28T07:55:13;9.30;99.90
1704;DHT22;849;48.780;9.216;2024-02-28T07:57:57;9.30;99.90
1704;DHT22;849;48.780;9.216;2024-02-28T08:00:41;9.30;99.90
1704;DHT22;849;48.780;9.216;2024-02-28T08:03:27;9.30;99.90
1704;DHT22;849;48.780;9.216;2024-02-28T08:06:11;9.20;99.90
1704;DHT22;849;48.780;9.216;2024-02-28T08:08:55;9.20;99.90
1704;DHT22;849;48.780;9.216;2024-02-28T08:11:39;9.20;99.90
1704;DHT22;849;48.780;9.216;2024-02-28T08:14:23;9.20;99.90
1704;DHT22;849;48.780;9.216;2024-02-28T08:17:08;9.40;99.90
1704;DHT22;849;48.780;9.216;2024-02-28T08:19:51;9.40;99.90
1704;DHT22;849;48.780;9.216;2024-02-28T08:22:35;9.40;99.90
1704;DHT22;849;48.780;9.216;2024-02-28T08:25:22;9.50;99.90
1704;DHT22;849;48.780;9.216;2024-02-28T08:28:06;9.50;99.90
1704;DHT22;849;48.780;9.216;2024-02-28T08:30:50;9.40;99.90
1704;DHT22;849;48.780;9.216;2024-02-28T08:33:34;9.40;99.90
1704;DHT22;849;48.780;9.216;2024-02-28T08:36:18;9.40;99.90
1704;DHT22;849;48.780;9.216;2024-02-28T08:39:02;9.30;99.90
1704;DHT22;849;48.780;9.216;2024-02-28T08:41:48;9.60;99.90
1704;DHT22;849;48.780;9.216;2024-02-28T08:44:32;9.60;99.90
1704;DHT22;849;48.780;9.216;2024-02-28T08:47:16;9.40;99.90
1704;DHT22;849;48.780;9.216;2024-02-28T08:50:00;9.40;99.90
1704;DHT22;849;48.780;9.216;2024-02-28T08:52:44;9.30;99.90
1704;DHT22;849;48.780;9.216;2024-02-28T08:55:28;9.30;99.90
1704;DHT22;849;48.780;9.216;2024-02-28T08:58:12;9.40;99.90
1704;DHT22;849;48.780;9.216;2024-02-28T09:00:57;9.40;99.90
1704;DHT22;849;48.780;9.216;2024-02-28T09:03:41;9.50;99.90
1704;DHT22;849;48.780;9.216;2024-02-28T09:06:24;9.40;99.90
1704;DHT22;849;48.780;9.216;2024-02-28T09:09:09;9.50;99.90
1704;DHT22;849;48.780;9.216;2024-02-28T09:11:54;9.60;99.90
1704;DHT22;849;48.780;9.216;2024-02-28T09:14:38;9.70;99.90
1704;DHT22;849;48.780;9.216;2024-02-28T09:17:22;9.70;99.90
1704;DHT22;849;48.780;9.216;2024-02-28T09:20:06;9.70;99.90
1704;DHT22;849;48.780;9.216;2024-02-28T09:22:51;9.80;99.90
1704;DHT22;849;48.780;9.216;2024-02-28T09:25:36;9.80;99.90
1704;DHT22;849;48.780;9.216;2024-02-28T09:28:20;9.90;99.90
1704;DHT22;849;48.780;9.216;2024-02-28T09:31:04;9.80;99.90
1704;DHT22;849;48.780;9.216;2024-02-28T09:33:48;9.70;99.90
1704;DHT22;849;48.780;9.216;2024-02-28T09:36:40;9.70;99.90
1704;DHT22;849;48.780;9.216;2024-02-28T09:39:24;9.80;99.90
1704;DHT22;849;48.780;9.216;2024-02-28T09:42:10;9.90;99.90
1704;DHT22;849;48.780;9.216;2024-02-28T09:44:54;9.90;99.90
1704;DHT22;849;48.780;9.216;2024-02-28T09:47:39;9.80;99.90
1704;DHT22;849;48.780;9.216;2024-02-28T09:50:26;9.70;99.90
1704;DHT22;849;48.780;9.216;2024-02-28T09:53:10;9.90;99.90
1704;DHT22;849;48.780;9.216;2024-02-28T09:55:54;9.90;99.90
1704;DHT22;849;48.780;9.216;2024-02-28T09:58:39;10.00;99.90
1704;DHT22;849;48.780;9.216;2024-02-28T10:01:24;10.00;99.90
1704;DHT22;849;48.780;9.216;2024-02-28T10:04:10;10.20;99.90
1704;DHT22;849;48.780;9.216;2024-02-28T10:06:56;10.20;99.90
1704;DHT22;849;48.780;9.216;2024-02-28T10:09:41;10.30;99.90
1704;DHT22;849;48.780;9.216;2024-02-28T10:12:26;10.30;99.90
1704;DHT22;849;48.780;9.216;2024-02-28T10:15:11;10.40;99.90
1704;DHT22;849;48.780;9.216;2024-02-28T10:17:55;10.40;99.90
1704;DHT22;849;48.780;9.216;2024-02-28T10:20:39;10.50;99.90
1704;DHT22;849;48.780;9.216;2024-02-28T10:23:23;10.50;99.90
1704;DHT22;849;48.780;9.216;2024-02-28T10:26:14;10.50;99.90
1704;DHT22;849;48.780;9.216;2024-02-28T10:28:58;10.40;99.90
1704;DHT22;849;48.780;9.216;2024-02-28T10:31:42;10.40;99.90
1704;DHT22;849;48.780;9.216;2024-02-28T10:34:28;10.50;99.90
1704;DHT22;849;48.780;9.216;2024-02-28T10:37:12;10.40;99.90
1704;DHT22;849;48.780;9.216;2024-02-28T10:39:57;10.40;99.90
1704;DHT22;849;48.780;9.216;2024-02-28T10:42:42;10.50;99.90
1704;DHT22;849;48.780;9.216;2024-02-28T10:45:27;10.50;99.90
1704;DHT22;849;48.780;9.216;2024-02-28T10:48:15;10.60;99.90
1704;DHT22;849;48.780;9.216;2024-02-28T10:51:02;10.60;99.90
1704;DHT22;849;48.780;9.216;2024-02-28T10:53:49;10.50;99.90
1704;DHT22;849;48.780;9.216;2024-02-28T10:56:34;10.30;99.90
1704;DHT22;849;48.780;9.216;2024-02-28T10:59:19;10.30;99.90
1704;DHT22;849;48.780;9.216;2024-02-28T11:02:04;10.30;99.90
1704;DHT22;849;48.780;9.216;2024-02-28T11:04:50;10.30;99.90
1704;DHT22;849;48.780;9.216;2024-02-28T11:07:34;10.30;99.90
1704;DHT22;849;48.780;9.216;2024-02-28T11:10:23;10.40;99.90
1704;DHT22;849;48.780;9.216;2024-02-28T11:13:07;10.40;99.90
1704;DHT22;849;48.780;9.216;2024-02-28T11:15:55;10.40;99.90
1704;DHT22;849;48.780;9.216;2024-02-28T11:18:49;10.30;99.90
1704;DHT22;849;48.780;9.216;2024-02-28T11:21:34;10.40;99.90
1704;DHT22;849;48.780;9.216;2024-02-28T11:24:23;10.40;99.90
1704;DHT22;849;48.780;9.216;2024-02-28T11:27:14;10.40;99.90
1704;DHT22;849;48.780;9.216;2024-02-28T11:29:58;10.40;99.90
1704;DHT22;849;48.780;9.216;2024-02-28T11:32:42;10.30;99.90
1704;DHT22;849;48.780;9.216;2024-02-28T11:35:27;10.20;99.90
1704;DHT22;849;48.780;9.216;2024-02-28T11:38:15;10.10;99.90
1704;DHT22;849;48.780;9.216;2024-02-28T11:40:59;10.20;99.90
1704;DHT22;849;48.780;9.216;2024-02-28T11:43:43;10.10;99.90
1704;DHT22;849;48.780;9.216;2024-02-28T11:46:27;10.10;99.90
1704;DHT22;849;48.780;9.216;2024-02-28T11:49:15;10.20;99.90
1704;DHT22;849;48.780;9.216;2024-02-28T11:52:00;10.10;99.90
1704;DHT22;849;48.780;9.216;2024-02-28T11:54:45;10.10;99.90
1704;DHT22;849;48.780;9.216;2024-02-28T11:57:29;10.10;99.90
1704;DHT22;849;48.780;9.216;2024-02-28T12:00:17;10.00;99.90
1704;DHT22;849;48.780;9.216;2024-02-28T12:03:05;10.00;99.90
1704;DHT22;849;48.780;9.216;2024-02-28T12:05:51;10.00;99.90
1704;DHT22;849;48.780;9.216;2024-02-28T12:08:35;10.10;99.90
1704;DHT22;849;48.780;9.216;2024-02-28T12:11:19;10.10;99.90
1704;DHT22;849;48.780;9.216;2024-02-28T12:14:04;10.10;99.90
1704;DHT22;849;48.780;9.216;2024-02-28T12:16:50;9.90;99.90
1704;DHT22;849;48.780;9.216;2024-02-28T12:19:35;10.00;99.90
1704;DHT22;849;48.780;9.216;2024-02-28T12:22:19;10.00;99.90
1704;DHT22;849;48.780;9.216;2024-02-28T12:25:04;10.00;99.90
1704;DHT22;849;48.780;9.216;2024-02-28T12:27:50;10.10;99.90
1704;DHT22;849;48.780;9.216;2024-02-28T12:30:40;10.00;99.90
1704;DHT22;849;48.780;9.216;2024-02-28T12:33:25;10.00;99.90
1704;DHT22;849;48.780;9.216;2024-02-28T12:36:09;9.90;99.90
1704;DHT22;849;48.780;9.216;2024-02-28T12:38:54;10.00;99.90
1704;DHT22;849;48.780;9.216;2024-02-28T12:41:38;10.00;99.90
1704;DHT22;849;48.780;9.216;2024-02-28T12:44:22;10.00;99.90
1704;DHT22;849;48.780;9.216;2024-02-28T12:47:06;9.90;99.90
1704;DHT22;849;48.780;9.216;2024-02-28T12:49:50;10.10;99.90
1704;DHT22;849;48.780;9.216;2024-02-28T12:52:35;10.10;99.90
1704;DHT22;849;48.780;9.216;2024-02-28T12:55:20;9.90;99.90
1704;DHT22;849;48.780;9.216;2024-02-28T12:58:08;10.00;99.90
1704;DHT22;849;48.780;9.216;2024-02-28T13:00:52;10.00;99.90
1704;DHT22;849;48.780;9.216;2024-02-28T13:03:36;9.80;99.90
1704;DHT22;849;48.780;9.216;2024-02-28T13:06:19;9.80;99.90
1704;DHT22;849;48.780;9.216;2024-02-28T13:09:04;9.70;99.90
1704;DHT22;849;48.780;9.216;2024-02-28T13:11:50;9.60;99.90
1704;DHT22;849;48.780;9.216;2024-02-28T13:14:34;9.70;99.90
1704;DHT22;849;48.780;9.216;2024-02-28T13:17:18;9.70;99.90
1704;DHT22;849;48.780;9.216;2024-02-28T13:20:03;9.80;99.90
1704;DHT22;849;48.780;9.216;2024-02-28T13:22:47;9.70;99.90
1704;DHT22;849;48.780;9.216;2024-02-28T13:25:31;9.80;99.90
1704;DHT22;849;48.780;9.216;2024-02-28T13:28:15;9.80;99.90
1704;DHT22;849;48.780;9.216;2024-02-28T13:31:00;9.70;99.90
1704;DHT22;849;48.780;9.216;2024-02-28T13:33:44;9.70;99.90
1704;DHT22;849;48.780;9.216;2024-02-28T13:36:29;9.80;99.90
1704;DHT22;849;48.780;9.216;2024-02-28T13:39:16;9.80;99.90
1704;DHT22;849;48.780;9.216;2024-02-28T13:42:00;9.80;99.90
1704;DHT22;849;48.780;9.216;2024-02-28T13:44:44;9.80;99.90
1704;DHT22;849;48.780;9.216;2024-02-28T13:47:28;9.70;99.90
1704;DHT22;849;48.780;9.216;2024-02-28T13:50:13;9.70;99.90
1704;DHT22;849;48.780;9.216;2024-02-28T13:52:58;9.80;99.90
1704;DHT22;849;48.780;9.216;2024-02-28T13:55:43;9.80;99.90
1704;DHT22;849;48.780;9.216;2024-02-28T13:58:28;9.70;99.90
1704;DHT22;849;48.780;9.216;2024-02-28T14:01:13;9.80;99.90
1704;DHT22;849;48.780;9.216;2024-02-28T14:03:57;9.70;99.90
1704;DHT22;849;48.780;9.216;2024-02-28T14:06:41;9.90;99.90
1704;DHT22;849;48.780;9.216;2024-02-28T14:09:25;10.00;99.90
1704;DHT22;849;48.780;9.216;2024-02-28T14:12:10;10.10;99.90
1704;DHT22;849;48.780;9.216;2024-02-28T14:14:53;10.10;99.90
1704;DHT22;849;48.780;9.216;2024-02-28T14:17:38;10.10;99.90
1704;DHT22;849;48.780;9.216;2024-02-28T14:20:22;10.10;99.90
1704;DHT22;849;48.780;9.216;2024-02-28T14:23:06;10.10;99.90
1704;DHT22;849;48.780;9.216;2024-02-28T14:25:51;10.00;99.90
1704;DHT22;849;48.780;9.216;2024-02-28T14:28:35;10.10;99.90
1704;DHT22;849;48.780;9.216;2024-02-28T14:31:19;10.10;99.90
1704;DHT22;849;48.780;9.216;2024-02-28T14:34:03;10.20;99.90
1704;DHT22;849;48.780;9.216;2024-02-28T14:36:52;10.30;99.90
1704;DHT22;849;48.780;9.216;2024-02-28T14:39:36;10.30;99.90
1704;DHT22;849;48.780;9.216;2024-02-28T14:42:20;10.30;99.90
1704;DHT22;849;48.780;9.216;2024-02-28T14:45:09;10.20;99.90
1704;DHT22;849;48.780;9.216;2024-02-28T14:47:56;10.30;99.90
1704;DHT22;849;48.780;9.216;2024-02-28T14:50:41;10.40;99.90
1704;DHT22;849;48.780;9.216;2024-02-28T14:53:26;10.40;99.90
1704;DHT22;849;48.780;9.216;2024-02-28T14:56:10;10.50;99.90
1704;DHT22;849;48.780;9.216;2024-02-28T14:58:58;10.50;99.90
1704;DHT22;849;48.780;9.216;2024-02-28T15:01:44;10.50;99.90
1704;DHT22;849;48.780;9.216;2024-02-28T15:04:29;10.60;99.90
1704;DHT22;849;48.780;9.216;2024-02-28T15:07:13;10.50;99.90
1704;DHT22;849;48.780;9.216;2024-02-28T15:09:57;10.50;99.90
1704;DHT22;849;48.780;9.216;2024-02-28T15:12:44;10.50;99.90
1704;DHT22;849;48.780;9.216;2024-02-28T15:15:29;10.50;99.90
1704;DHT22;849;48.780;9.216;2024-02-28T15:18:13;10.60;99.90
1704;DHT22;849;48.780;9.216;2024-02-28T15:20:58;10.50;99.90
1704;DHT22;849;48.780;9.216;2024-02-28T15:23:42;10.60;99.90
1704;DHT22;849;48.780;9.216;2024-02-28T15:26:27;10.60;99.90
1704;DHT22;849;48.780;9.216;2024-02-28T15:29:11;10.60;99.90
1704;DHT22;849;48.780;9.216;2024-02-28T15:31:55;10.60;99.90
1704;DHT22;849;48.780;9.216;2024-02-28T15:34:39;10.60;99.90
1704;DHT22;849;48.780;9.216;2024-02-28T15:37:24;10.60;99.90
1704;DHT22;849;48.780;9.216;2024-02-28T15:40:10;10.60;99.90
1704;DHT22;849;48.780;9.216;2024-02-28T15:42:54;10.60;99.90
1704;DHT22;849;48.780;9.216;2024-02-28T15:45:38;10.60;99.90
1704;DHT22;849;48.780;9.216;2024-02-28T15:48:26;10.60;99.90
1704;DHT22;849;48.780;9.216;2024-02-28T15:51:11;10.60;99.90
1704;DHT22;849;48.780;9.216;2024-02-28T15:53:55;10.60;99.90
1704;DHT22;849;48.780;9.216;2024-02-28T15:56:40;10.60;99.90
1704;DHT22;849;48.780;9.216;2024-02-28T15:59:24;10.60;99.70
1704;DHT22;849;48.780;9.216;2024-02-28T16:02:09;10.60;99.90
1704;DHT22;849;48.780;9.216;2024-02-28T16:04:55;10.60;99.90
1704;DHT22;849;48.780;9.216;2024-02-28T16:07:40;10.60;99.90
1704;DHT22;849;48.780;9.216;2024-02-28T16:10:26;10.60;99.90
1704;DHT22;849;48.780;9.216;2024-02-28T16:13:10;10.50;99.90
1704;DHT22;849;48.780;9.216;2024-02-28T16:15:55;10.50;99.90
1704;DHT22;849;48.780;9.216;2024-02-28T16:18:40;10.50;99.90
1704;DHT22;849;48.780;9.216;2024-02-28T16:21:24;10.50;99.90
1704;DHT22;849;48.780;9.216;2024-02-28T16:24:09;10.50;99.90
1704;DHT22;849;48.780;9.216;2024-02-28T16:26:53;10.50;99.90
1704;DHT22;849;48.780;9.216;2024-02-28T16:29:37;10.50;99.90
1704;DHT22;849;48.780;9.216;2024-02-28T16:32:21;10.50;99.90
1704;DHT22;849;48.780;9.216;2024-02-28T16:35:05;10.60;99.90
1704;DHT22;849;48.780;9.216;2024-02-28T16:37:49;10.60;99.90
1704;DHT22;849;48.780;9.216;2024-02-28T16:40:33;10.60;99.90
1704;DHT22;849;48.780;9.216;2024-02-28T16:43:17;10.60;99.90
1704;DHT22;849;48.780;9.216;2024-02-28T16:46:01;10.50;99.90
1704;DHT22;849;48.780;9.216;2024-02-28T16:48:45;10.50;99.90
1704;DHT22;849;48.780;9.216;2024-02-28T16:51:29;10.60;99.90
1704;DHT22;849;48.780;9.216;2024-02-28T16:54:13;10.50;99.90
1704;DHT22;849;48.780;9.216;2024-02-28T16:56:57;10.50;99.90
1704;DHT22;849;48.780;9.216;2024-02-28T16:59:41;10.50;99.90
1704;DHT22;849;48.780;9.216;2024-02-28T17:02:26;10.50;99.90
1704;DHT22;849;48.780;9.216;2024-02-28T17:05:10;10.50;99.90
1704;DHT22;849;48.780;9.216;2024-02-28T17:07:54;10.50;99.90
1704;DHT22;849;48.780;9.216;2024-02-28T17:10:38;10.50;99.90
1704;DHT22;849;48.780;9.216;2024-02-28T17:13:22;10.50;99.90
1704;DHT22;849;48.780;9.216;2024-02-28T17:16:06;10.50;99.90
1704;DHT22;849;48.780;9.216;2024-02-28T17:18:51;10.50;99.90
1704;DHT22;849;48.780;9.216;2024-02-28T17:21:35;10.50;99.90
1704;DHT22;849;48.780;9.216;2024-02-28T17:24:19;10.50;99.90
1704;DHT22;849;48.780;9.216;2024-02-28T17:27:03;10.50;99.90
1704;DHT22;849;48.780;9.216;2024-02-28T17:29:47;10.50;99.90
1704;DHT22;849;48.780;9.216;2024-02-28T17:32:31;10.50;99.90
1704;DHT22;849;48.780;9.216;2024-02-28T17:35:15;10.50;99.90
1704;DHT22;849;48.780;9.216;2024-02-28T17:37:59;10.50;99.90
1704;DHT22;849;48.780;9.216;2024-02-28T17:40:43;10.50;99.90
1704;DHT22;849;48.780;9.216;2024-02-28T17:43:27;10.40;99.90
1704;DHT22;849;48.780;9.216;2024-02-28T17:46:13;10.40;99.90
1704;DHT22;849;48.780;9.216;2024-02-28T17:48:57;10.40;99.90
1704;DHT22;849;48.780;9.216;2024-02-28T17:51:41;10.50;99.90
1704;DHT22;849;48.780;9.216;2024-02-28T17:54:26;10.50;99.90
1704;DHT22;849;48.780;9.216;2024-02-28T17:57:10;10.50;99.90
1704;DHT22;849;48.780;9.216;2024-02-28T17:59:54;10.50;99.90
1704;DHT22;849;48.780;9.216;2024-02-28T18:02:42;10.40;99.90
1704;DHT22;849;48.780;9.216;2024-02-28T18:05:26;10.40;99.90
1704;DHT22;849;48.780;9.216;2024-02-28T18:08:11;10.40;99.90
1704;DHT22;849;48.780;9.216;2024-02-28T18:10:55;10.40;99.90
1704;DHT22;849;48.780;9.216;2024-02-28T18:13:39;10.40;99.90
1704;DHT22;849;48.780;9.216;2024-02-28T18:16:23;10.50;99.90
1704;DHT22;849;48.780;9.216;2024-02-28T18:19:08;10.40;99.90